Glen Richey, PA (16837)

8:36 AM EST on December 06, 2016 (GMT -0500)
Twinoaks | | Change Station

Elev 1493 ft 40.99 °N, 78.53 °W | Updated 32 seconds ago

Clear
Clear
29.1 °F
Feels Like 25 °F
N
4.0
Wind Variable Wind from ENE

Today
High -- | Low -- °F
--% Chance of Precip.
Yesterday
High -- | Low -- °F
Precip. -- in
Pressure 30.07 in
Visibility 10.0 miles
Clouds Clear
Windchill 25 °F
Dew Point 26 °F
Humidity 90%
Rainfall 0.00 in
Snow Depth Not available.
7:24 AM 4:45 PM
Waxing Crescent, 42% visible
METAR KFIG 061254Z AUTO 07007KT 10SM CLR M02/M03 A3003 RMK AO2 SLP183 T10171028
Pressure 30.07 in
Visibility 10.0 miles
Clouds Clear
Windchill 25 °F
Dew Point 26 °F
Humidity 90%
Rainfall 0.00 in
Snow Depth Not available.
7:24 AM 4:45 PM
Waxing Crescent, 42% visible
METAR KFIG 061254Z AUTO 07007KT 10SM CLR M02/M03 A3003 RMK AO2 SLP183 T10171028

10-Day Weather Forecast

Almanac

Astronomy

Dec. 06, 2016 Rise Set
Actual Time
Civil Twilight
Nautical Twilight
Astronomical Twilight
Moon
Length of Visible Light
Length of Day
Tomorrow will be .
, % of the Moon is Illuminated

Today's Extremes

State Highs State Lows

Community

WunderPhotos

Upload Photos

1,955,945 photos uploaded!

WunderBlog® & News

Nearby

Air Quality

  Air Quality AQ Index Pollutant
Not available.

Snow Depth

Station Depth Elevation

Earthquake Activity

City Distance Mag. Time & Date
Minimum magnitude displayed is 2.5.

Coastal Water Temperatures

Place Temperature

Stations

Nearby Weather Stations

Station Location Temp. Windchill Dew Point Humidity Wind Precip. Elev Updated Type
                   

Watches & Warnings

There are currently no watches in effect.